Time;durP1;ratioP1;P1;durP2;ratioP2;P2;SDS_P1;SDS_P2;PMS_P1;PMS_P2;Temp;Humidity;BMP_temperature;BMP_pressure;BME280_temperature;BME280_humidity;BME280_pressure;Samples;Min_cycle;Max_cycle;Signal;HPM_P1;HPM_P2
2021/06/15 00:01:40;;;;;;;;;9.25;7.25;;;;;23.37;43.69;101594.06;6275319;22;45343;-95
2021/06/15 00:04:06;;;;;;;;;6.25;6.25;;;;;23.31;43.96;101592.66;6274641;22;47217;-94
2021/06/15 00:06:31;;;;;;;;;7.00;7.00;;;;;23.27;43.67;101596.56;6274850;22;45448;-95
2021/06/15 00:08:58;;;;;;;;;5.25;5.25;;;;;23.21;43.91;101590.75;6274692;22;45163;-95
2021/06/15 00:11:24;;;;;;;;;8.75;6.75;;;;;23.17;44.23;101586.63;6275306;22;45157;-96
2021/06/15 00:13:49;;;;;;;;;8.25;7.00;;;;;23.15;43.93;101585.88;6274544;22;47417;-94
2021/06/15 00:16:15;;;;;;;;;8.25;7.00;;;;;23.09;43.99;101584.56;6275060;22;45123;-95
2021/06/15 00:18:40;;;;;;;;;5.25;5.25;;;;;23.05;44.12;101580.44;6275346;22;45499;-95
2021/06/15 00:21:05;;;;;;;;;7.75;7.00;;;;;23.01;44.22;101576.31;6249324;22;45310;-95
2021/06/15 00:23:31;;;;;;;;;5.00;5.00;;;;;23.01;44.62;101572.84;6274314;22;46876;-95
2021/06/15 00:25:56;;;;;;;;;6.50;6.50;;;;;22.99;44.37;101574.75;6248706;22;44850;-95
2021/06/15 00:28:22;;;;;;;;;6.00;6.00;;;;;22.96;44.58;101576.66;6249104;22;45228;-95
2021/06/15 00:30:47;;;;;;;;;7.25;7.25;;;;;22.93;44.63;101584.88;6275296;22;45358;-95
2021/06/15 00:33:13;;;;;;;;;6.50;6.50;;;;;22.91;44.41;101570.03;6274547;22;46782;-94
2021/06/15 00:35:38;;;;;;;;;7.25;6.00;;;;;22.87;45.02;101580.00;6274270;22;45413;-95
2021/06/15 00:38:04;;;;;;;;;6.75;6.50;;;;;22.84;44.93;101572.31;6274909;22;44724;-95
2021/06/15 00:40:30;;;;;;;;;8.75;8.50;;;;;22.83;44.91;101578.56;6274757;22;45426;-95
2021/06/15 00:42:56;;;;;;;;;7.50;5.75;;;;;22.78;44.67;101578.91;6274755;22;46911;-95
2021/06/15 00:45:24;;;;;;;;;6.00;6.00;;;;;22.77;45.23;101589.66;6274149;22;45227;-95
2021/06/15 00:47:51;;;;;;;;;6.00;6.00;;;;;22.71;45.02;101574.19;6249281;22;45195;-95
2021/06/15 00:50:19;;;;;;;;;6.00;5.50;;;;;22.71;44.78;101572.38;6276331;22;45289;-94
2021/06/15 00:52:45;;;;;;;;;5.25;5.25;;;;;22.66;45.05;101577.16;6249669;22;47288;-94
2021/06/15 00:55:11;;;;;;;;;8.00;8.00;;;;;22.65;45.41;101578.13;6276084;22;45154;-95
2021/06/15 00:57:36;;;;;;;;;7.75;7.75;;;;;22.64;45.29;101579.09;6276169;22;45475;-95
2021/06/15 01:00:05;;;;;;;;;7.75;7.50;;;;;22.59;45.42;101582.06;6250501;22;45315;-95
2021/06/15 01:02:31;;;;;;;;;7.00;6.00;;;;;22.58;45.97;101583.03;6275097;22;46730;-95
2021/06/15 01:05:00;;;;;;;;;8.00;6.33;;;;;22.57;45.68;101577.88;6275622;22;45291;-94
2021/06/15 01:07:34;;;;;;;;;6.67;6.67;;;;;22.54;45.87;101589.56;6258287;22;45244;-95
2021/06/15 01:10:12;;;;;;;;;9.00;8.00;;;;;22.48;45.81;101587.28;6240236;22;45176;-95
2021/06/15 01:12:59;;;;;;;;;7.00;7.00;;;;;22.48;45.92;101590.81;6239750;22;47343;-94
2021/06/15 01:15:55;;;;;;;;;8.25;6.25;;;;;22.41;46.18;101586.91;6239724;22;45619;-95
2021/06/15 01:18:24;;;;;;;;;6.25;6.00;;;;;22.40;45.67;101591.38;6239751;22;45425;-95
2021/06/15 01:21:06;;;;;;;;;7.50;7.50;;;;;22.39;46.11;101596.78;6240144;22;45696;-96
2021/06/15 01:23:48;;;;;;;;;7.00;7.00;;;;;22.36;46.35;101594.34;6239702;22;47083;-96
2021/06/15 01:26:47;;;;;;;;;6.00;6.00;;;;;22.30;46.04;101595.63;6214274;22;44848;-95
2021/06/15 01:29:19;;;;;;;;;6.75;6.75;;;;;22.28;46.56;101594.91;6239951;22;44793;-94
2021/06/15 01:31:50;;;;;;;;;7.00;6.75;;;;;22.23;46.58;101587.31;6214626;22;45497;-94
2021/06/15 01:34:21;;;;;;;;;8.00;8.00;;;;;22.19;45.99;101577.88;6239460;22;47200;-95
2021/06/15 01:37:13;;;;;;;;;7.00;6.33;;;;;22.17;46.56;101571.81;6239456;22;45056;-95
2021/06/15 01:39:52;;;;;;;;;10.33;8.33;;;;;22.15;46.67;101574.59;6239327;22;45312;-95
2021/06/15 01:42:36;;;;;;;;;7.50;7.00;;;;;22.18;46.77;101580.63;6213787;22;45355;-95
2021/06/15 01:45:14;;;;;;;;;6.33;6.00;;;;;22.12;46.37;101572.16;6239388;22;46769;-94
2021/06/15 01:47:46;;;;;;;;;7.33;7.33;;;;;22.06;46.73;101569.09;6239384;22;45343;-95
2021/06/15 01:50:17;;;;;;;;;9.00;8.00;;;;;22.06;46.23;101577.91;6214505;22;45235;-95
2021/06/15 01:52:43;;;;;;;;;6.00;5.67;;;;;22.03;46.72;101568.38;6275568;22;45400;-95
2021/06/15 01:55:09;;;;;;;;;7.25;7.25;;;;;22.00;46.56;101565.94;6275362;22;47070;-95
2021/06/15 01:57:36;;;;;;;;;6.33;6.33;;;;;21.99;46.77;101571.38;6301808;22;46273;-94
2021/06/15 02:00:09;;;;;;;;;8.25;7.25;;;;;21.98;46.83;101574.97;6301527;22;45199;-95
2021/06/15 02:02:38;;;;;;;;;8.00;7.00;;;;;21.94;46.97;101584.09;6275749;22;45196;-94
2021/06/15 02:05:07;;;;;;;;;11.00;8.00;;;;;21.93;46.79;101582.41;6301352;22;47526;-94
2021/06/15 02:07:38;;;;;;;;;8.50;8.50;;;;;21.85;47.11;101573.19;6275480;22;45875;-94
2021/06/15 02:10:15;;;;;;;;;7.67;7.67;;;;;21.84;47.06;101573.31;6301798;22;45452;-95
2021/06/15 02:12:46;;;;;;;;;7.67;6.00;;;;;21.81;47.21;101578.81;6275402;22;45334;-95
2021/06/15 02:15:14;;;;;;;;;8.75;8.00;;;;;21.77;47.00;101575.53;6301300;22;47931;-95
2021/06/15 02:17:44;;;;;;;;;13.25;11.00;;;;;21.72;47.58;101581.13;6275162;22;45370;-94
2021/06/15 02:20:12;;;;;;;;;17.25;15.50;;;;;21.72;47.29;101581.13;6301603;22;45185;-95
2021/06/15 02:22:44;;;;;;;;;13.75;13.00;;;;;21.72;47.62;101583.78;6275924;22;45499;-96
2021/06/15 02:25:10;;;;;;;;;12.75;12.00;;;;;21.72;47.34;101588.25;6301094;22;47611;-94
2021/06/15 02:27:36;;;;;;;;;13.00;12.50;;;;;21.68;47.51;101576.13;6275155;22;45279;-94
2021/06/15 02:30:03;;;;;;;;;10.00;10.00;;;;;21.70;47.58;101577.75;6275625;22;45200;-95
2021/06/15 02:32:33;;;;;;;;;11.25;10.00;;;;;21.67;47.29;101574.47;6275862;22;44924;-95
2021/06/15 02:35:00;;;;;;;;;9.25;9.25;;;;;21.70;47.30;101579.56;6275486;22;47125;-95
2021/06/15 02:37:30;;;;;;;;;8.75;7.25;;;;;21.67;47.48;101579.75;6275498;22;44772;-95
2021/06/15 02:39:57;;;;;;;;;9.50;8.75;;;;;21.68;47.30;101577.00;6275612;22;45270;-95
2021/06/15 02:42:25;;;;;;;;;7.00;7.00;;;;;21.65;47.21;101577.19;6275527;22;45279;-96
2021/06/15 02:44:55;;;;;;;;;7.75;7.75;;;;;21.65;47.49;101576.38;6301209;22;47127;-95
2021/06/15 02:47:22;;;;;;;;;5.25;5.25;;;;;21.64;47.20;101586.09;6275222;22;45293;-95
2021/06/15 02:49:51;;;;;;;;;8.50;8.25;;;;;21.60;47.59;101581.97;6275532;22;45405;-95
2021/06/15 02:52:23;;;;;;;;;7.00;7.00;;;;;21.56;47.75;101585.81;6301664;22;45202;-94
2021/06/15 02:55:02;;;;;;;;;8.25;7.00;;;;;21.57;47.74;101588.31;6301088;22;47631;-95
2021/06/15 02:57:29;;;;;;;;;6.00;6.00;;;;;21.58;47.65;101590.03;6301437;22;45194;-94
2021/06/15 02:59:55;;;;;;;;;11.25;5.25;;;;;21.53;47.86;101583.38;6275550;22;45327;-95
2021/06/15 03:02:24;;;;;;;;;6.50;6.50;;;;;21.52;47.59;101581.66;6301872;22;45401;-95
2021/06/15 03:04:49;;;;;;;;;6.50;6.00;;;;;21.50;47.54;101597.66;6301095;22;47237;-94
2021/06/15 03:07:16;;;;;;;;;8.25;8.25;;;;;21.54;47.53;101596.50;6275753;22;45170;-94
2021/06/15 03:09:42;;;;;;;;;7.00;6.00;;;;;21.51;47.73;101587.94;6275546;22;45307;-95
2021/06/15 03:12:18;;;;;;;;;8.00;7.33;;;;;21.45;48.02;101578.59;6275556;22;45540;-95
2021/06/15 03:14:49;;;;;;;;;9.50;7.00;;;;;21.44;48.13;101588.31;6301342;22;47431;-96
2021/06/15 03:17:16;;;;;;;;;7.75;6.50;;;;;21.43;48.28;101581.34;6301654;22;45139;-95
2021/06/15 03:19:56;;;;;;;;;7.75;7.75;;;;;21.45;48.02;101594.47;6301313;22;45267;-94
2021/06/15 03:22:25;;;;;;;;;7.00;6.00;;;;;21.42;48.25;101587.59;6275585;22;45628;-95
2021/06/15 03:24:55;;;;;;;;;5.75;5.75;;;;;21.38;48.12;101580.81;6274951;22;47252;-94
2021/06/15 03:27:32;;;;;;;;;6.00;6.00;;;;;21.39;48.44;101582.53;6275154;22;45394;-95
2021/06/15 03:30:05;;;;;;;;;6.25;6.25;;;;;21.33;48.18;101575.84;6304555;22;45353;-96
2021/06/15 03:32:31;;;;;;;;;6.67;5.00;;;;;21.30;48.09;101578.69;6301659;22;45194;-94
2021/06/15 03:34:57;;;;;;;;;8.25;7.00;;;;;21.30;48.07;101583.16;6301224;22;47234;-94
2021/06/15 03:37:27;;;;;;;;;10.25;8.00;;;;;21.27;47.92;101578.06;6275137;22;45409;-95
2021/06/15 03:39:54;;;;;;;;;5.75;5.75;;;;;21.24;48.15;101584.41;6275339;22;44650;-95
2021/06/15 03:42:24;;;;;;;;;7.50;6.50;;;;;21.24;48.16;101592.34;6300817;22;45481;-95
2021/06/15 03:44:59;;;;;;;;;8.50;6.25;;;;;21.22;48.08;101597.75;6301117;22;47326;-94
2021/06/15 03:47:27;;;;;;;;;7.50;6.50;;;;;21.16;48.18;101592.84;6275143;22;45223;-95
2021/06/15 03:49:54;;;;;;;;;7.00;7.00;;;;;21.14;48.22;101599.22;6301448;22;45259;-95
2021/06/15 03:52:23;;;;;;;;;5.50;5.50;;;;;21.12;48.19;101588.75;6274938;22;45279;-95
2021/06/15 03:54:50;;;;;;;;;8.00;8.00;;;;;21.09;48.50;101592.44;6275337;22;47005;-94
2021/06/15 03:57:16;;;;;;;;;8.75;7.75;;;;;21.05;48.24;101592.72;6274613;22;45359;-94
2021/06/15 03:59:44;;;;;;;;;14.25;10.50;;;;;21.03;48.06;101592.88;6301100;22;45270;-94
2021/06/15 04:02:10;;;;;;;;;8.25;8.00;;;;;20.98;48.22;101588.81;6275547;22;45453;-94
2021/06/15 04:04:40;;;;;;;;;11.25;8.25;;;;;20.94;48.39;101586.41;6274715;22;48526;-94
2021/06/15 04:07:13;;;;;;;;;11.00;9.25;;;;;20.93;48.40;101594.44;6274726;22;45712;-96
2021/06/15 04:09:39;;;;;;;;;12.50;12.00;;;;;20.89;48.20;101595.56;6300731;22;45285;-94
2021/06/15 04:12:06;;;;;;;;;9.50;9.50;;;;;20.87;48.68;101593.03;6301166;22;45209;-95
2021/06/15 04:14:34;;;;;;;;;9.25;9.00;;;;;20.87;48.69;101594.84;6300579;22;47505;-94
2021/06/15 04:17:01;;;;;;;;;12.00;11.00;;;;;20.82;48.89;101587.16;6300774;22;45403;-94
2021/06/15 04:19:30;;;;;;;;;12.00;9.50;;;;;20.80;48.54;101582.00;6300974;22;45296;-93
2021/06/15 04:22:00;;;;;;;;;12.25;11.00;;;;;20.79;48.90;101579.44;6301070;22;45262;-94
2021/06/15 04:24:27;;;;;;;;;10.00;8.00;;;;;20.75;49.17;101580.59;6299895;22;47502;-95
2021/06/15 04:26:57;;;;;;;;;12.25;10.25;;;;;20.76;49.11;101590.22;6274547;22;45361;-94
2021/06/15 04:29:23;;;;;;;;;10.25;9.00;;;;;20.76;49.00;101595.50;6300587;22;45334;-93
2021/06/15 04:31:52;;;;;;;;;9.25;9.25;;;;;20.72;48.80;101594.00;6301208;22;45328;-94
2021/06/15 04:34:23;;;;;;;;;10.00;8.00;;;;;20.74;49.21;101600.06;6274350;22;47338;-95
2021/06/15 04:36:50;;;;;;;;;8.25;8.00;;;;;20.71;49.17;101603.75;6275076;22;45587;-94
2021/06/15 04:39:21;;;;;;;;;6.50;6.50;;;;;20.74;49.64;101600.88;6274714;22;45322;-94
2021/06/15 04:41:56;;;;;;;;;9.50;9.00;;;;;20.73;49.64;101604.47;6300786;22;45133;-95
2021/06/15 04:44:26;;;;;;;;;9.00;9.00;;;;;20.71;49.86;101609.03;6300308;22;48343;-94
2021/06/15 04:46:56;;;;;;;;;10.00;9.75;;;;;20.73;49.57;101624.81;6274641;22;45200;-93
2021/06/15 04:49:32;;;;;;;;;6.25;6.25;;;;;20.73;49.54;101622.16;6300648;22;44670;-95
2021/06/15 04:52:01;;;;;;;;;7.75;7.75;;;;;20.74;49.99;101624.69;6300581;22;44711;-94
2021/06/15 04:54:34;;;;;;;;;9.00;9.00;;;;;20.74;49.85;101623.84;6300476;22;47155;-93
2021/06/15 04:57:03;;;;;;;;;10.00;10.00;;;;;20.77;49.92;101628.91;6300481;22;45375;-95
2021/06/15 04:59:31;;;;;;;;;10.00;9.00;;;;;20.80;49.93;101623.44;6274353;22;45608;-94
2021/06/15 05:01:58;;;;;;;;;10.50;8.00;;;;;20.81;49.55;101625.13;6274674;22;45155;-94
2021/06/15 05:04:25;;;;;;;;;6.50;6.50;;;;;20.83;49.47;101631.19;6300504;22;47297;-94
2021/06/15 05:06:51;;;;;;;;;8.25;8.00;;;;;20.87;50.15;101631.88;6302003;22;45341;-95
2021/06/15 05:09:24;;;;;;;;;8.25;7.00;;;;;20.91;49.43;101633.34;6301242;22;45312;-95
2021/06/15 05:11:52;;;;;;;;;10.00;9.00;;;;;20.96;49.30;101631.25;6274632;22;45488;-94
2021/06/15 05:14:20;;;;;;;;;13.25;10.50;;;;;20.98;49.83;101631.16;6274151;22;47124;-94
2021/06/15 05:16:46;;;;;;;;;7.75;7.75;;;;;21.02;49.51;101636.13;6300102;22;45265;-95
2021/06/15 05:19:11;;;;;;;;;8.75;7.75;;;;;21.08;49.62;101648.97;6300407;22;45176;-94
2021/06/15 05:21:48;;;;;;;;;10.00;9.25;;;;;21.12;49.88;101654.03;6274531;22;45287;-94
2021/06/15 05:24:44;;;;;;;;;9.25;8.50;;;;;21.16;49.92;101653.72;6273940;22;47365;-95
2021/06/15 05:27:10;;;;;;;;;8.50;8.50;;;;;21.15;49.81;101644.09;6299909;22;45333;-94
2021/06/15 05:29:35;;;;;;;;;8.50;8.50;;;;;21.19;49.77;101650.03;6300173;22;45195;-95
2021/06/15 05:32:01;;;;;;;;;9.75;8.75;;;;;21.21;50.20;101648.97;6274978;22;45299;-95
2021/06/15 05:34:26;;;;;;;;;12.50;9.25;;;;;21.23;50.49;101644.44;6300283;22;45569;-94
2021/06/15 05:36:52;;;;;;;;;10.75;9.25;;;;;21.28;50.13;101652.06;6301871;22;45508;-95
2021/06/15 05:39:17;;;;;;;;;11.00;10.00;;;;;21.32;50.27;101650.91;6301924;22;45363;-94
2021/06/15 05:41:43;;;;;;;;;8.33;8.33;;;;;21.39;50.51;101648.72;6302007;22;45580;-94
2021/06/15 05:44:08;;;;;;;;;11.50;9.25;;;;;21.45;50.07;101660.66;6301230;22;46690;-94
2021/06/15 05:46:33;;;;;;;;;8.50;8.50;;;;;21.47;50.28;101651.66;6275623;22;45389;-95
2021/06/15 05:48:59;;;;;;;;;7.75;7.00;;;;;21.52;49.67;101663.75;6301358;22;45113;-95
2021/06/15 05:51:24;;;;;;;;;12.00;9.00;;;;;21.54;49.71;101656.53;6275485;22;45143;-94
2021/06/15 05:53:50;;;;;;;;;10.75;8.25;;;;;21.61;50.07;101663.09;6301278;22;46966;-93
2021/06/15 05:56:15;;;;;;;;;10.50;9.00;;;;;21.66;50.01;101660.16;6275514;22;45330;-95
2021/06/15 05:58:41;;;;;;;;;13.00;10.25;;;;;21.68;49.95;101659.09;6301307;22;45199;-95
2021/06/15 06:01:06;;;;;;;;;10.75;9.25;;;;;21.74;49.97;101664.00;6301907;22;45481;-95
2021/06/15 06:03:34;;;;;;;;;11.50;11.00;;;;;21.82;49.66;101667.91;6301480;22;47120;-94
2021/06/15 06:08:45;;;;;;;;;10.50;10.00;;;;;21.94;50.12;101672.34;6277173;22;45364;-94
2021/06/15 06:11:10;;;;;;;;;11.25;11.00;;;;;21.97;49.61;101666.84;6276106;22;45433;-94
2021/06/15 06:13:36;;;;;;;;;9.25;9.25;;;;;21.98;49.54;101663.25;6299169;22;47198;-94
2021/06/15 06:16:05;;;;;;;;;9.00;9.00;;;;;22.01;49.51;101668.34;6274854;22;45290;-94
2021/06/15 06:18:32;;;;;;;;;9.00;9.00;;;;;22.06;49.59;101661.84;6301523;22;45180;-94
2021/06/15 06:20:58;;;;;;;;;9.75;9.25;;;;;22.09;49.71;101659.84;6275848;22;45282;-95
2021/06/15 06:23:23;;;;;;;;;10.25;10.00;;;;;22.14;48.91;101668.31;6287188;22;47490;-94
2021/06/15 06:25:49;;;;;;;;;12.50;11.75;;;;;22.18;48.70;101662.78;6276158;22;45366;-94
2021/06/15 06:28:14;;;;;;;;;14.00;12.25;;;;;22.22;48.99;101662.47;6275475;22;45184;-94
2021/06/15 06:30:40;;;;;;;;;8.00;8.00;;;;;22.32;48.59;101653.84;6275561;22;45684;-93
2021/06/15 06:33:05;;;;;;;;;9.00;8.25;;;;;22.38;48.94;101650.75;6275194;22;47231;-94
2021/06/15 06:35:30;;;;;;;;;10.50;10.00;;;;;22.44;48.65;101647.66;6301313;22;46046;-95
2021/06/15 06:37:58;;;;;;;;;10.50;10.25;;;;;22.58;48.65;101659.13;6301357;22;45404;-92
2021/06/15 06:40:25;;;;;;;;;13.25;13.25;;;;;22.61;48.68;101665.06;6276120;22;45397;-94
2021/06/15 06:42:50;;;;;;;;;11.00;9.25;;;;;22.70;48.11;101658.22;6300865;22;47199;-94
2021/06/15 06:45:16;;;;;;;;;11.00;9.00;;;;;22.75;47.70;101658.72;6275022;22;44993;-94
2021/06/15 06:47:42;;;;;;;;;10.00;10.00;;;;;22.83;47.35;101666.97;6300698;22;45251;-94
2021/06/15 06:50:12;;;;;;;;;10.00;8.75;;;;;22.90;47.03;101655.88;6275765;22;45197;-95
2021/06/15 06:52:38;;;;;;;;;11.25;11.00;;;;;22.93;47.62;101661.84;6274923;22;47248;-94
2021/06/15 06:55:05;;;;;;;;;11.25;9.00;;;;;22.98;47.67;101658.84;6275139;22;45273;-94
2021/06/15 06:57:30;;;;;;;;;8.75;8.75;;;;;23.01;46.90;101658.59;6275514;22;45337;-95
2021/06/15 06:59:55;;;;;;;;;12.00;11.00;;;;;23.05;46.66;101659.22;6301157;22;45218;-94
2021/06/15 07:02:21;;;;;;;;;11.25;10.75;;;;;23.12;46.98;101667.56;6300866;22;46880;-93
2021/06/15 07:04:46;;;;;;;;;10.75;9.75;;;;;23.15;46.46;101657.56;6301257;22;45211;-95
2021/06/15 07:07:12;;;;;;;;;12.50;12.00;;;;;23.23;46.90;101664.94;6275168;22;45243;-94
2021/06/15 07:09:37;;;;;;;;;6.00;5.25;;;;;23.27;46.75;101666.41;6275366;22;45176;-94
2021/06/15 07:12:03;;;;;;;;;10.25;8.75;;;;;23.34;46.84;101662.34;6301165;22;47324;-94
2021/06/15 07:14:28;;;;;;;;;13.00;11.00;;;;;23.36;46.90;101662.25;6301410;22;45841;-94
2021/06/15 07:16:54;;;;;;;;;11.00;10.00;;;;;23.44;45.96;101669.63;6301054;22;45392;-95
2021/06/15 07:19:19;;;;;;;;;10.00;9.50;;;;;23.45;46.56;101666.00;6301813;22;45425;-94
2021/06/15 07:21:45;;;;;;;;;11.25;10.00;;;;;23.51;46.58;101668.19;6301189;22;46916;-94
2021/06/15 07:24:10;;;;;;;;;13.75;12.00;;;;;23.56;46.24;101670.50;6275157;22;45077;-94
2021/06/15 07:26:36;;;;;;;;;10.00;9.50;;;;;23.59;46.60;101673.75;6301210;22;45344;-94
2021/06/15 07:29:01;;;;;;;;;12.25;11.00;;;;;23.64;46.16;101670.75;6275598;22;45362;-94
2021/06/15 07:31:27;;;;;;;;;11.50;9.50;;;;;23.70;46.50;101666.78;6300736;22;46576;-93
2021/06/15 07:33:53;;;;;;;;;10.75;10.00;;;;;23.72;46.40;101663.03;6274765;22;45365;-94
2021/06/15 07:36:18;;;;;;;;;11.00;10.50;;;;;23.81;45.75;101663.28;6275294;22;45369;-94
2021/06/15 07:38:43;;;;;;;;;10.75;10.75;;;;;23.87;45.89;101666.31;6275364;22;45410;-94
2021/06/15 07:41:09;;;;;;;;;12.75;11.25;;;;;23.94;45.70;101673.78;6300954;22;47000;-94
2021/06/15 07:43:37;;;;;;;;;9.50;9.50;;;;;23.99;45.79;101661.84;6275299;22;45277;-94
2021/06/15 07:46:02;;;;;;;;;11.50;9.75;;;;;24.05;45.84;101659.63;6300688;22;45223;-94
2021/06/15 07:48:28;;;;;;;;;10.25;10.00;;;;;24.11;45.73;101654.72;6301208;22;45442;-94
2021/06/15 07:50:53;;;;;;;;;16.50;14.50;;;;;24.19;45.20;101655.91;6300570;22;48231;-95
2021/06/15 07:53:19;;;;;;;;;14.50;13.25;;;;;24.25;45.19;101664.25;6300797;22;45424;-94
2021/06/15 07:55:44;;;;;;;;;12.00;11.25;;;;;24.28;45.11;101647.22;6275187;22;45392;-94
2021/06/15 07:58:11;;;;;;;;;18.25;14.25;;;;;24.32;44.98;101650.47;6301202;22;45302;-94
2021/06/15 08:00:37;;;;;;;;;15.75;11.50;;;;;24.38;44.79;101653.47;6275625;22;47910;-94
2021/06/15 08:03:02;;;;;;;;;13.00;12.50;;;;;24.46;44.82;101649.34;6273835;22;45911;-94
2021/06/15 08:05:28;;;;;;;;;12.50;12.00;;;;;24.53;45.09;101653.22;6274791;22;45368;-94
2021/06/15 08:07:54;;;;;;;;;15.75;12.50;;;;;24.60;44.46;101645.56;6300519;22;45543;-93
2021/06/15 08:10:20;;;;;;;;;13.50;12.50;;;;;24.65;43.85;101644.22;6274500;22;47069;-93
2021/06/15 08:12:47;;;;;;;;;13.75;11.75;;;;;24.67;43.76;101652.91;6298525;22;45538;-94
2021/06/15 08:15:13;;;;;;;;;12.00;10.50;;;;;24.74;44.23;101652.41;6275275;22;45290;-92
2021/06/15 08:17:38;;;;;;;;;13.25;13.25;;;;;24.79;43.69;101644.91;6302616;22;44758;-94
2021/06/15 08:20:08;;;;;;;;;13.00;12.25;;;;;24.85;43.62;101640.91;6300413;22;47014;-94
2021/06/15 08:22:33;;;;;;;;;13.00;13.00;;;;;24.92;43.62;101639.44;6299655;22;45766;-94
2021/06/15 08:24:58;;;;;;;;;16.00;13.00;;;;;25.01;43.93;101643.13;6301489;22;45164;-94
2021/06/15 08:27:24;;;;;;;;;13.25;12.00;;;;;25.07;43.86;101638.16;6275300;22;45314;-94
2021/06/15 08:29:50;;;;;;;;;15.00;13.25;;;;;25.20;43.75;101635.31;6300194;22;46467;-94
2021/06/15 08:32:16;;;;;;;;;12.25;11.25;;;;;25.28;43.93;101637.31;6300532;22;44701;-94
2021/06/15 08:34:41;;;;;;;;;10.25;9.75;;;;;25.40;43.99;101638.06;6300821;22;45226;-95
2021/06/15 08:37:07;;;;;;;;;11.00;9.25;;;;;25.49;43.50;101639.97;6274908;22;45465;-94
2021/06/15 08:39:33;;;;;;;;;13.25;11.00;;;;;25.57;43.49;101644.66;6274189;22;47869;-94
2021/06/15 08:41:58;;;;;;;;;14.75;12.25;;;;;25.69;43.08;101636.59;6274408;22;45248;-94
2021/06/15 08:44:24;;;;;;;;;13.50;12.25;;;;;25.80;43.25;101631.16;6274619;22;45832;-94
2021/06/15 08:46:49;;;;;;;;;11.50;10.50;;;;;25.95;43.05;101636.09;6300328;22;45396;-93
2021/06/15 08:49:14;;;;;;;;;11.25;10.00;;;;;26.08;42.47;101641.19;6299621;22;48252;-92
2021/06/15 08:51:41;;;;;;;;;11.00;11.00;;;;;26.17;42.70;101634.22;6273779;22;45268;-94
2021/06/15 08:54:07;;;;;;;;;15.50;13.00;;;;;26.27;42.35;101643.13;6300739;22;45334;-94
2021/06/15 08:56:35;;;;;;;;;14.25;13.25;;;;;26.30;42.04;101636.66;6274455;22;45243;-94
2021/06/15 08:59:11;;;;;;;;;14.00;13.50;;;;;26.40;41.77;101641.03;6300086;22;47296;-95
2021/06/15 09:01:37;;;;;;;;;13.00;11.50;;;;;26.47;41.25;101641.31;6300250;22;45327;-93
2021/06/15 09:04:02;;;;;;;;;15.50;14.00;;;;;26.54;41.48;101638.94;6299910;22;45267;-95
2021/06/15 09:06:28;;;;;;;;;12.50;12.00;;;;;26.56;40.74;101634.31;6275516;22;44793;-94
2021/06/15 09:08:56;;;;;;;;;10.75;10.25;;;;;26.62;40.66;101643.59;6299879;22;47978;-93
2021/06/15 09:11:24;;;;;;;;;11.75;11.00;;;;;26.71;40.95;101634.75;6275570;22;45456;-95
2021/06/15 09:13:50;;;;;;;;;10.25;10.00;;;;;26.85;40.88;101632.63;6275903;22;45311;-94
2021/06/15 09:16:18;;;;;;;;;11.00;9.25;;;;;27.02;40.58;101636.47;6301566;22;45378;-94
2021/06/15 09:18:45;;;;;;;;;10.33;9.67;;;;;27.08;39.51;101635.88;6301162;22;47251;-94
2021/06/15 09:21:11;;;;;;;;;9.00;7.00;;;;;27.18;39.31;101633.19;6301868;22;45310;-94
2021/06/15 09:23:38;;;;;;;;;12.00;10.67;;;;;27.32;39.73;101635.38;6275729;22;45251;-95
2021/06/15 09:26:06;;;;;;;;;9.00;8.00;;;;;27.45;39.16;101634.25;6275709;22;44750;-95
2021/06/15 09:28:32;;;;;;;;;11.75;10.00;;;;;27.56;39.15;101639.44;6301328;22;47077;-96
2021/06/15 09:31:09;;;;;;;;;9.75;9.75;;;;;27.69;38.94;101647.16;6301421;22;45263;-94
2021/06/15 09:33:48;;;;;;;;;10.50;9.50;;;;;27.81;38.85;101639.75;6275550;22;45516;-94
2021/06/15 09:36:13;;;;;;;;;14.25;10.00;;;;;27.94;38.58;101641.25;6275652;22;45434;-96
2021/06/15 09:38:58;;;;;;;;;11.50;9.50;;;;;28.00;38.84;101638.84;6301831;22;46801;-95
2021/06/15 09:41:42;;;;;;;;;13.00;10.00;;;;;28.14;38.19;101629.47;6275554;22;45382;-94
2021/06/15 09:44:17;;;;;;;;;11.00;10.50;;;;;28.30;38.36;101629.81;6301860;22;45281;-95
2021/06/15 09:46:54;;;;;;;;;13.00;9.50;;;;;28.48;38.24;101635.19;6301854;22;45416;-95
2021/06/15 09:49:33;;;;;;;;;10.00;8.50;;;;;28.65;38.08;101634.34;6300866;22;47198;-94
2021/06/15 09:52:22;;;;;;;;;11.25;11.25;;;;;28.76;37.38;101629.75;6301054;22;44890;-95
2021/06/15 09:54:51;;;;;;;;;11.00;10.25;;;;;28.88;37.00;101633.91;6301707;22;45477;-95
2021/06/15 09:57:26;;;;;;;;;11.75;8.50;;;;;29.01;37.07;101633.50;6302194;22;45186;-95
2021/06/15 10:00:13;;;;;;;;;11.25;11.25;;;;;29.07;36.77;101640.91;6275216;22;47011;-93
2021/06/15 10:03:14;;;;;;;;;10.50;9.75;;;;;29.19;36.16;101640.66;6301421;22;45305;-95
2021/06/15 10:05:40;;;;;;;;;14.50;9.25;;;;;29.34;36.59;101636.41;6212663;22;45223;-94
2021/06/15 10:08:08;;;;;;;;;9.25;9.25;;;;;29.53;35.86;101636.38;6187474;22;45247;-93
2021/06/15 10:10:40;;;;;;;;;10.25;9.25;;;;;29.68;36.17;101639.28;6187922;22;47842;-93
2021/06/15 10:13:06;;;;;;;;;13.50;9.75;;;;;29.83;35.26;101634.16;6187662;22;45240;-95
2021/06/15 10:15:34;;;;;;;;;12.00;9.50;;;;;30.05;35.22;101637.25;6213166;22;45198;-93
2021/06/15 10:18:00;;;;;;;;;11.00;9.00;;;;;30.25;34.41;101635.16;6213122;22;45367;-94
2021/06/15 10:20:30;;;;;;;;;9.75;9.00;;;;;30.43;35.09;101637.72;6212407;22;47085;-93
2021/06/15 10:22:59;;;;;;;;;9.00;9.00;;;;;30.61;34.95;101634.88;6186909;22;46242;-95
2021/06/15 10:25:29;;;;;;;;;9.67;8.33;;;;;30.82;34.16;101638.91;6187536;22;45378;-94
2021/06/15 10:27:55;;;;;;;;;12.25;9.50;;;;;30.99;34.64;101629.00;6187647;22;45631;-95
2021/06/15 10:30:33;;;;;;;;;8.33;8.00;;;;;31.22;34.14;101631.00;6187409;22;47055;-94
2021/06/15 10:33:02;;;;;;;;;11.75;9.00;;;;;31.42;33.77;101627.97;6187503;22;45226;-95
2021/06/15 10:35:35;;;;;;;;;10.25;9.00;;;;;31.51;32.43;101634.16;6187483;22;45385;-94
2021/06/15 10:38:01;;;;;;;;;9.00;9.00;;;;;31.51;33.04;101621.53;6187772;22;45391;-93
2021/06/15 10:40:27;;;;;;;;;8.25;8.25;;;;;31.64;31.99;101620.97;6225187;22;45585;-94
2021/06/15 10:43:11;;;;;;;;;10.50;10.50;;;;;31.76;31.61;101620.59;6301368;22;45387;-94
2021/06/15 10:45:38;;;;;;;;;9.00;8.75;;;;;31.90;31.16;101621.75;6301387;22;45534;-94
2021/06/15 10:48:06;;;;;;;;;9.00;8.67;;;;;32.07;32.07;101628.69;6275199;22;45411;-94
2021/06/15 10:50:44;;;;;;;;;9.00;9.00;;;;;32.29;32.05;101623.53;6301273;22;46876;-94
2021/06/15 10:53:31;;;;;;;;;10.50;10.00;;;;;32.50;31.61;101628.28;6276213;22;45175;-94
2021/06/15 10:55:57;;;;;;;;;10.00;8.50;;;;;32.64;30.65;101623.13;6303762;22;45263;-94
2021/06/15 10:58:31;;;;;;;;;12.00;8.75;;;;;32.77;30.66;101615.25;6304978;22;44759;-96
2021/06/15 11:01:16;;;;;;;;;7.25;7.25;;;;;32.97;30.44;101617.47;6304673;22;47423;-94
2021/06/15 11:03:54;;;;;;;;;9.25;8.25;;;;;33.13;30.07;101613.75;6275211;22;45980;-94
2021/06/15 11:06:28;;;;;;;;;9.00;9.00;;;;;33.35;29.87;101619.25;6274645;22;45399;-94
2021/06/15 11:09:03;;;;;;;;;7.25;7.25;;;;;33.53;29.72;101607.28;6301689;22;45513;-94
2021/06/15 11:11:29;;;;;;;;;7.75;7.75;;;;;33.70;28.55;101602.53;6300962;22;47406;-93
2021/06/15 11:13:56;;;;;;;;;9.25;8.50;;;;;33.88;29.08;101606.66;6274920;22;45935;-95
2021/06/15 11:16:41;;;;;;;;;8.00;7.00;;;;;34.00;28.83;101607.81;6301477;22;45267;-94
2021/06/15 11:19:10;;;;;;;;;9.00;8.75;;;;;34.21;28.27;101604.38;6301081;22;45151;-94
2021/06/15 11:21:51;;;;;;;;;5.75;5.75;;;;;34.38;28.15;101593.25;6299507;22;47234;-93
2021/06/15 11:24:22;;;;;;;;;8.00;7.75;;;;;34.51;28.20;101598.81;6299148;22;45297;-94
2021/06/15 11:26:55;;;;;;;;;9.25;8.25;;;;;34.65;27.46;101594.38;6295929;22;45580;-94
2021/06/15 11:29:41;;;;;;;;;8.00;8.00;;;;;34.70;26.87;101585.66;6300739;22;45188;-95
2021/06/15 11:32:13;;;;;;;;;7.00;7.00;;;;;34.64;26.90;101592.72;6272500;22;47491;-95